createdAt,value
2023-02-03T00:03:59.565Z,100.00
2023-02-03T00:05:01.651Z,100.00
2023-02-03T00:06:04.670Z,100.00
2023-02-03T00:07:06.665Z,100.00
2023-02-03T00:08:09.980Z,100.00
2023-02-03T00:09:12.392Z,100.00
2023-02-03T00:10:14.949Z,100.00
2023-02-03T00:11:16.938Z,100.00
2023-02-03T00:12:18.850Z,100.00
2023-02-03T00:13:21.560Z,100.00
2023-02-03T00:14:23.296Z,100.00
2023-02-03T00:15:25.366Z,100.00
2023-02-03T00:16:27.386Z,100.00
2023-02-03T00:17:29.384Z,100.00
2023-02-03T00:18:31.260Z,100.00
2023-02-03T00:19:33.137Z,100.00
2023-02-03T00:20:35.017Z,100.00
2023-02-03T00:21:36.886Z,100.00
2023-02-03T00:22:38.736Z,100.00
2023-02-03T00:23:41.793Z,100.00
2023-02-03T00:24:43.584Z,100.00
2023-02-03T00:25:45.493Z,100.00
2023-02-03T00:26:47.232Z,100.00
2023-02-03T00:27:49.046Z,100.00
2023-02-03T00:28:50.801Z,100.00
2023-02-03T00:29:52.616Z,100.00
2023-02-03T00:30:54.425Z,100.00
2023-02-03T00:31:56.716Z,100.00
2023-02-03T00:32:58.949Z,100.00
2023-02-03T00:34:00.847Z,100.00
2023-02-03T00:35:02.936Z,100.00
2023-02-03T00:36:06.195Z,100.00
2023-02-03T00:37:08.009Z,100.00
2023-02-03T00:38:09.849Z,100.00
2023-02-03T00:39:12.450Z,100.00
2023-02-03T00:40:14.572Z,100.00
2023-02-03T00:41:18.170Z,100.00
2023-02-03T00:42:20.017Z,100.00
2023-02-03T00:43:21.897Z,100.00
2023-02-03T00:44:23.836Z,100.00
2023-02-03T00:45:26.351Z,100.00
2023-02-03T00:46:28.224Z,100.00
2023-02-03T00:47:30.186Z,100.00
2023-02-03T00:48:32.215Z,100.00
2023-02-03T00:49:34.137Z,100.00
2023-02-03T00:50:35.927Z,100.00
2023-02-03T00:51:37.718Z,100.00
2023-02-03T00:52:39.659Z,100.00
2023-02-03T00:53:41.462Z,100.00
2023-02-03T00:54:43.436Z,100.00
2023-02-03T00:55:45.296Z,100.00
2023-02-03T00:56:46.984Z,100.00
2023-02-03T00:57:48.871Z,100.00
2023-02-03T00:58:50.852Z,100.00
2023-02-03T00:59:52.754Z,100.00
2023-02-03T01:00:57.353Z,100.00
2023-02-03T01:02:00.847Z,100.00
2023-02-03T01:03:03.420Z,100.00
2023-02-03T01:04:05.483Z,100.00
2023-02-03T01:05:09.122Z,100.00
2023-02-03T01:06:15.444Z,100.00
2023-02-03T01:07:17.592Z,100.00
2023-02-03T01:08:20.078Z,100.00
2023-02-03T01:09:22.009Z,100.00
2023-02-03T01:10:24.099Z,100.00
2023-02-03T01:11:27.900Z,100.00
2023-02-03T01:12:31.167Z,100.00
2023-02-03T01:13:33.692Z,100.00
2023-02-03T01:14:35.546Z,100.00
2023-02-03T01:15:47.442Z,100.00
2023-02-03T01:16:49.398Z,100.00
2023-02-03T01:17:52.259Z,100.00
2023-02-03T01:18:55.656Z,100.00
2023-02-03T01:19:57.480Z,100.00
2023-02-03T01:21:06.368Z,100.00
2023-02-03T01:22:08.330Z,100.00
2023-02-03T01:23:10.228Z,100.00
2023-02-03T01:24:12.284Z,100.00
2023-02-03T01:25:14.178Z,100.00
2023-02-03T01:26:19.504Z,100.00
2023-02-03T01:27:22.767Z,100.00
2023-02-03T01:28:24.569Z,100.00
2023-02-03T01:29:27.748Z,100.00
2023-02-03T01:30:30.401Z,98.93
2023-02-03T01:31:39.913Z,98.07
2023-02-03T01:32:42.283Z,98.15
2023-02-03T01:33:48.819Z,98.66
2023-02-03T01:34:50.747Z,99.17
2023-02-03T01:35:52.662Z,99.91
2023-02-03T01:36:54.624Z,99.64
2023-02-03T01:37:57.461Z,99.53
2023-02-03T01:38:59.348Z,99.61
2023-02-03T01:40:01.330Z,99.95
2023-02-03T01:41:04.349Z,100.00
2023-02-03T01:42:06.182Z,99.97
2023-02-03T01:43:10.091Z,99.86
2023-02-03T01:44:33.688Z,99.58
2023-02-03T01:45:35.468Z,99.39
2023-02-03T01:46:44.657Z,99.00
2023-02-03T01:47:48.227Z,97.90
2023-02-03T01:48:51.731Z,97.55
2023-02-03T01:50:27.684Z,96.96
2023-02-03T01:51:30.616Z,96.06
2023-02-03T01:52:33.337Z,96.02
2023-02-03T01:53:35.305Z,96.02
2023-02-03T01:54:44.052Z,96.41
2023-02-03T01:55:50.324Z,96.23
2023-02-03T01:57:00.989Z,95.71
2023-02-03T01:58:12.997Z,94.69
2023-02-03T01:59:19.729Z,94.65
2023-02-03T02:00:22.155Z,94.80
2023-02-03T02:01:24.131Z,94.95
2023-02-03T02:02:26.761Z,95.11
2023-02-03T02:03:38.248Z,94.64
2023-02-03T02:05:01.881Z,94.23
2023-02-03T02:06:10.617Z,94.05
2023-02-03T02:07:16.511Z,94.22
2023-02-03T02:08:22.423Z,94.20
2023-02-03T02:09:26.753Z,94.03
2023-02-03T02:10:33.557Z,93.89
2023-02-03T02:11:35.465Z,93.91
2023-02-03T02:12:37.693Z,93.85
2023-02-03T02:13:43.030Z,94.03
2023-02-03T02:14:47.699Z,94.14
2023-02-03T02:16:17.914Z,93.66
2023-02-03T02:17:42.699Z,93.40
2023-02-03T02:19:36.226Z,93.93
2023-02-03T02:21:00.095Z,94.49
2023-02-03T02:22:20.850Z,94.13
2023-02-03T02:23:37.199Z,94.71
2023-02-03T02:24:55.150Z,94.58
2023-02-03T02:26:09.292Z,94.52
2023-02-03T02:27:35.416Z,93.88
2023-02-03T02:29:20.241Z,94.01
2023-02-03T02:31:22.181Z,93.32
2023-02-03T02:32:46.401Z,93.64
2023-02-03T02:34:02.634Z,93.50
2023-02-03T02:35:23.767Z,93.85
2023-02-03T02:36:37.652Z,93.58
2023-02-03T02:38:07.684Z,93.07
2023-02-03T02:39:29.398Z,93.54
2023-02-03T02:40:49.818Z,93.58
2023-02-03T02:42:11.273Z,93.84
2023-02-03T02:43:39.879Z,94.03
2023-02-03T02:44:50.668Z,94.88
2023-02-03T02:46:30.805Z,94.53
2023-02-03T02:47:33.827Z,94.60
2023-02-03T02:48:45.839Z,94.42
2023-02-03T02:50:01.094Z,94.41
2023-02-03T02:51:08.622Z,94.86
2023-02-03T02:52:16.961Z,94.85
2023-02-03T02:53:24.698Z,94.90
2023-02-03T02:54:31.495Z,95.22
2023-02-03T02:55:40.077Z,95.31
2023-02-03T02:56:48.248Z,95.36
2023-02-03T02:57:55.675Z,95.65
2023-02-03T02:59:02.836Z,95.70
2023-02-03T03:00:06.051Z,95.93
2023-02-03T03:01:11.837Z,96.19
2023-02-03T03:02:13.732Z,96.08
2023-02-03T03:03:24.412Z,96.25
2023-02-03T03:04:30.366Z,96.83
2023-02-03T03:05:34.494Z,96.91
2023-02-03T03:06:44.868Z,96.63
2023-02-03T03:08:02.781Z,97.01
2023-02-03T03:09:15.066Z,97.29
2023-02-03T03:10:27.366Z,96.57
2023-02-03T03:11:36.334Z,96.81
2023-02-03T03:12:48.419Z,96.90
2023-02-03T03:13:56.145Z,97.41
2023-02-03T03:15:04.753Z,97.56
2023-02-03T03:16:11.203Z,97.65
2023-02-03T03:17:22.088Z,98.12
2023-02-03T03:18:32.048Z,98.35
2023-02-03T03:19:50.685Z,98.60
2023-02-03T03:20:57.428Z,98.88
2023-02-03T03:22:03.874Z,99.29
2023-02-03T03:23:33.684Z,99.53
2023-02-03T03:24:45.725Z,99.92
2023-02-03T03:25:57.844Z,99.97
2023-02-03T03:27:17.346Z,100.00
2023-02-03T03:28:36.535Z,100.00
2023-02-03T03:30:12.794Z,100.00
2023-02-03T03:31:17.984Z,100.00
2023-02-03T03:32:22.084Z,100.00
2023-02-03T03:33:24.094Z,100.00
2023-02-03T03:34:26.233Z,100.00
2023-02-03T03:35:53.343Z,100.00
2023-02-03T03:37:20.848Z,100.00
2023-02-03T03:38:33.621Z,100.00
2023-02-03T03:39:47.306Z,100.00
2023-02-03T03:40:59.728Z,100.00
2023-02-03T03:42:12.661Z,100.00
2023-02-03T03:43:23.960Z,100.00
2023-02-03T03:44:32.919Z,100.00
2023-02-03T03:45:49.323Z,100.00
2023-02-03T03:47:33.986Z,100.00
2023-02-03T03:49:05.447Z,100.00
2023-02-03T03:50:15.665Z,100.00
2023-02-03T03:51:24.209Z,100.00
2023-02-03T03:52:30.809Z,100.00
2023-02-03T03:53:39.243Z,100.00
2023-02-03T03:54:44.684Z,100.00
2023-02-03T03:55:52.670Z,100.00
2023-02-03T03:57:26.884Z,100.00
2023-02-03T03:58:32.042Z,100.00
2023-02-03T03:59:40.645Z,100.00
2023-02-03T04:00:45.759Z,100.00
2023-02-03T04:01:50.033Z,100.00
2023-02-03T04:02:56.950Z,100.00
2023-02-03T04:04:05.763Z,100.00
2023-02-03T04:05:12.058Z,100.00
2023-02-03T04:06:14.749Z,100.00
2023-02-03T04:07:16.663Z,100.00
2023-02-03T04:08:18.564Z,100.00
2023-02-03T04:09:20.853Z,100.00
2023-02-03T04:10:31.953Z,100.00
2023-02-03T04:11:53.917Z,100.00
2023-02-03T04:12:55.909Z,100.00
2023-02-03T04:13:57.999Z,100.00
2023-02-03T04:14:59.672Z,100.00
2023-02-03T04:16:01.511Z,100.00
2023-02-03T04:17:03.759Z,100.00
2023-02-03T04:18:06.238Z,100.00
2023-02-03T04:19:08.624Z,100.00
2023-02-03T04:20:11.142Z,100.00
2023-02-03T04:21:12.829Z,100.00
2023-02-03T04:22:14.651Z,100.00
2023-02-03T04:23:16.730Z,100.00
2023-02-03T04:24:18.728Z,100.00
2023-02-03T04:25:21.503Z,100.00
2023-02-03T04:26:23.962Z,100.00
2023-02-03T04:27:27.215Z,100.00
2023-02-03T04:28:29.111Z,100.00
2023-02-03T04:29:30.817Z,100.00
2023-02-03T04:30:33.400Z,100.00
2023-02-03T04:31:35.365Z,100.00
2023-02-03T04:32:37.225Z,100.00
2023-02-03T04:33:39.045Z,100.00
2023-02-03T04:34:40.797Z,100.00
2023-02-03T04:35:42.536Z,100.00
2023-02-03T04:36:44.300Z,100.00
2023-02-03T04:37:46.374Z,100.00
2023-02-03T04:38:51.928Z,100.00
2023-02-03T04:39:55.529Z,100.00
2023-02-03T04:40:57.324Z,100.00
2023-02-03T04:41:59.073Z,100.00
2023-02-03T04:43:07.389Z,100.00
2023-02-03T04:44:09.478Z,100.00
2023-02-03T04:45:12.736Z,100.00
2023-02-03T04:46:14.865Z,100.00
2023-02-03T04:47:17.291Z,100.00
2023-02-03T04:48:19.159Z,100.00
2023-02-03T04:49:21.222Z,100.00
2023-02-03T04:50:22.991Z,100.00
2023-02-03T04:51:24.821Z,100.00
2023-02-03T04:52:26.908Z,100.00
2023-02-03T04:53:29.069Z,100.00
2023-02-03T04:54:30.876Z,100.00
2023-02-03T04:55:32.835Z,100.00
2023-02-03T04:56:34.576Z,100.00
2023-02-03T04:57:36.290Z,100.00
2023-02-03T04:58:38.040Z,100.00
2023-02-03T04:59:40.009Z,100.00
2023-02-03T05:00:41.773Z,100.00
2023-02-03T05:01:43.510Z,100.00
2023-02-03T05:02:45.173Z,100.00
2023-02-03T05:03:47.089Z,100.00
2023-02-03T05:04:48.818Z,100.00
2023-02-03T05:05:51.084Z,100.00
2023-02-03T05:06:52.909Z,100.00
2023-02-03T05:07:54.715Z,100.00
2023-02-03T05:08:56.551Z,100.00
2023-02-03T05:09:58.677Z,100.00
2023-02-03T05:11:02.140Z,100.00
2023-02-03T05:12:04.286Z,100.00
2023-02-03T05:13:06.156Z,100.00
2023-02-03T05:14:08.000Z,100.00
2023-02-03T05:15:10.213Z,100.00
2023-02-03T05:16:12.081Z,100.00
2023-02-03T05:17:13.913Z,100.00
2023-02-03T05:18:15.679Z,100.00
2023-02-03T05:19:17.428Z,100.00
2023-02-03T05:20:19.379Z,100.00
2023-02-03T05:21:21.539Z,100.00
2023-02-03T05:22:23.458Z,100.00
2023-02-03T05:23:25.342Z,100.00
2023-02-03T05:24:27.171Z,100.00
2023-02-03T05:25:28.928Z,100.00
2023-02-03T05:26:30.756Z,100.00
2023-02-03T05:27:32.708Z,100.00
2023-02-03T05:28:35.219Z,100.00
2023-02-03T05:29:36.999Z,100.00
2023-02-03T05:30:38.960Z,100.00
2023-02-03T05:31:40.815Z,100.00
2023-02-03T05:32:42.685Z,100.00
2023-02-03T05:33:44.601Z,100.00
2023-02-03T05:34:46.808Z,100.00
2023-02-03T05:35:48.650Z,100.00
2023-02-03T05:36:50.930Z,100.00
2023-02-03T05:37:52.765Z,100.00
2023-02-03T05:38:54.580Z,100.00
2023-02-03T05:40:16.397Z,100.00
2023-02-03T05:41:36.888Z,100.00
2023-02-03T05:42:38.723Z,100.00
2023-02-03T05:43:40.514Z,100.00
2023-02-03T05:44:42.211Z,100.00
2023-02-03T05:45:44.139Z,100.00
2023-02-03T05:46:46.123Z,100.00
2023-02-03T05:47:48.070Z,100.00
2023-02-03T05:48:50.057Z,100.00
2023-02-03T05:49:52.156Z,100.00
2023-02-03T05:50:53.951Z,100.00
2023-02-03T05:51:56.055Z,100.00
2023-02-03T05:52:57.839Z,100.00
2023-02-03T05:53:59.585Z,100.00
2023-02-03T05:55:01.366Z,100.00
2023-02-03T05:56:03.196Z,100.00
2023-02-03T05:57:04.947Z,100.00
2023-02-03T05:58:06.935Z,100.00
2023-02-03T05:59:08.885Z,100.00
2023-02-03T06:00:12.325Z,100.00
2023-02-03T06:01:14.135Z,100.00
2023-02-03T06:02:16.002Z,100.00
2023-02-03T06:03:17.996Z,100.00
2023-02-03T06:04:19.878Z,100.00
2023-02-03T06:05:23.642Z,100.00
2023-02-03T06:06:25.593Z,100.00
2023-02-03T06:07:27.554Z,100.00
2023-02-03T06:08:29.365Z,100.00
2023-02-03T06:09:31.099Z,100.00
2023-02-03T06:10:33.213Z,100.00
2023-02-03T06:11:36.423Z,100.00
2023-02-03T06:12:39.165Z,100.00
2023-02-03T06:13:40.989Z,100.00
2023-02-03T06:14:42.846Z,100.00
2023-02-03T06:15:45.191Z,100.00
2023-02-03T06:16:47.060Z,100.00
2023-02-03T06:17:49.324Z,100.00
2023-02-03T06:18:53.114Z,100.00
2023-02-03T06:19:54.890Z,100.00
2023-02-03T06:20:56.889Z,100.00
2023-02-03T06:21:58.715Z,100.00
2023-02-03T06:23:01.261Z,100.00
2023-02-03T06:24:03.799Z,100.00
2023-02-03T06:25:06.448Z,100.00
2023-02-03T06:26:08.266Z,100.00
2023-02-03T06:27:10.069Z,100.00
2023-02-03T06:28:11.899Z,100.00
2023-02-03T06:29:13.752Z,100.00
2023-02-03T06:30:15.698Z,100.00
2023-02-03T06:31:17.824Z,100.00
2023-02-03T06:32:19.741Z,100.00
2023-02-03T06:33:21.657Z,100.00
2023-02-03T06:34:23.932Z,100.00
2023-02-03T06:35:25.789Z,100.00
2023-02-03T06:36:27.476Z,100.00
2023-02-03T06:37:29.355Z,100.00
2023-02-03T06:38:31.279Z,100.00
2023-02-03T06:39:33.157Z,100.00
2023-02-03T06:40:34.949Z,100.00
2023-02-03T06:41:36.832Z,100.00
2023-02-03T06:42:38.921Z,100.00
2023-02-03T06:43:40.683Z,100.00
2023-02-03T06:44:42.465Z,100.00
2023-02-03T06:45:47.399Z,100.00
2023-02-03T06:46:50.721Z,100.00
2023-02-03T06:47:52.975Z,100.00
2023-02-03T06:48:54.775Z,100.00
2023-02-03T06:49:56.684Z,100.00
2023-02-03T06:50:58.587Z,100.00
2023-02-03T06:52:00.410Z,100.00
2023-02-03T06:53:02.162Z,100.00
2023-02-03T06:54:04.982Z,100.00
2023-02-03T06:55:07.626Z,100.00
2023-02-03T06:56:09.407Z,100.00
2023-02-03T06:57:11.645Z,100.00
2023-02-03T06:58:13.804Z,100.00
2023-02-03T06:59:15.773Z,100.00
2023-02-03T07:00:19.500Z,100.00
2023-02-03T07:01:21.644Z,100.00
2023-02-03T07:02:23.898Z,100.00
2023-02-03T07:03:25.771Z,100.00
2023-02-03T07:04:33.221Z,100.00
2023-02-03T07:05:37.382Z,100.00
2023-02-03T07:06:39.203Z,100.00
2023-02-03T07:07:40.955Z,100.00
2023-02-03T07:08:42.934Z,100.00
2023-02-03T07:09:44.691Z,100.00
2023-02-03T07:10:46.518Z,100.00
2023-02-03T07:11:48.266Z,100.00
2023-02-03T07:12:51.063Z,100.00
2023-02-03T07:13:53.511Z,100.00
2023-02-03T07:14:55.312Z,100.00
2023-02-03T07:15:57.401Z,100.00
2023-02-03T07:16:59.224Z,100.00
2023-02-03T07:18:01.035Z,100.00
2023-02-03T07:19:04.152Z,100.00
2023-02-03T07:20:06.312Z,100.00
2023-02-03T07:21:08.330Z,100.00
2023-02-03T07:22:12.928Z,100.00
2023-02-03T07:23:14.895Z,100.00
2023-02-03T07:24:16.760Z,100.00
2023-02-03T07:25:18.587Z,100.00
2023-02-03T07:26:23.223Z,100.00
2023-02-03T07:27:25.409Z,100.00
2023-02-03T07:28:27.274Z,100.00
2023-02-03T07:29:29.058Z,100.00
2023-02-03T07:30:31.195Z,100.00
2023-02-03T07:31:33.258Z,100.00
2023-02-03T07:32:35.719Z,100.00
2023-02-03T07:33:39.145Z,100.00
2023-02-03T07:34:41.079Z,100.00
2023-02-03T07:35:42.798Z,100.00
2023-02-03T07:36:44.607Z,100.00
2023-02-03T07:37:47.369Z,100.00
2023-02-03T07:38:49.077Z,100.00
2023-02-03T07:39:50.827Z,100.00
2023-02-03T07:40:56.092Z,100.00
2023-02-03T07:41:58.520Z,100.00
2023-02-03T07:43:02.325Z,100.00
2023-02-03T07:44:04.348Z,100.00
2023-02-03T07:45:06.473Z,100.00
2023-02-03T07:46:08.483Z,100.00
2023-02-03T07:47:12.459Z,100.00
2023-02-03T07:48:15.019Z,100.00
2023-02-03T07:49:16.779Z,100.00
2023-02-03T07:50:18.680Z,100.00
2023-02-03T07:51:20.567Z,100.00
2023-02-03T07:52:22.441Z,100.00
2023-02-03T07:53:26.467Z,100.00
2023-02-03T07:54:28.276Z,100.00
2023-02-03T07:55:30.798Z,100.00
2023-02-03T07:56:33.391Z,100.00
2023-02-03T07:57:35.334Z,100.00
2023-02-03T07:58:37.338Z,100.00
2023-02-03T07:59:39.121Z,100.00
2023-02-03T08:00:40.918Z,100.00
2023-02-03T08:01:42.810Z,100.00
2023-02-03T08:02:45.112Z,100.00
2023-02-03T08:03:47.000Z,100.00
2023-02-03T08:04:48.863Z,100.00
2023-02-03T08:05:52.303Z,100.00
2023-02-03T08:06:56.566Z,100.00
2023-02-03T08:07:59.406Z,100.00
2023-02-03T08:09:01.238Z,100.00
2023-02-03T08:10:03.774Z,100.00
2023-02-03T08:11:05.619Z,100.00
2023-02-03T08:12:07.558Z,100.00
2023-02-03T08:13:09.437Z,100.00
2023-02-03T08:14:11.284Z,100.00
2023-02-03T08:15:14.951Z,100.00
2023-02-03T08:16:17.116Z,100.00
2023-02-03T08:17:18.960Z,100.00
2023-02-03T08:18:20.685Z,100.00
2023-02-03T08:19:22.594Z,100.00
2023-02-03T08:20:24.489Z,100.00
2023-02-03T08:21:26.463Z,100.00
2023-02-03T08:22:28.534Z,100.00
2023-02-03T08:23:31.233Z,100.00
2023-02-03T08:24:33.139Z,100.00
2023-02-03T08:25:35.019Z,100.00
2023-02-03T08:26:37.394Z,100.00
2023-02-03T08:27:40.175Z,100.00
2023-02-03T08:28:42.022Z,100.00
2023-02-03T08:29:45.935Z,100.00
2023-02-03T08:30:47.907Z,100.00
2023-02-03T08:31:49.878Z,100.00
2023-02-03T08:32:51.978Z,100.00
2023-02-03T08:33:55.970Z,100.00
2023-02-03T08:34:57.816Z,100.00
2023-02-03T08:36:01.088Z,100.00
2023-02-03T08:37:03.718Z,100.00
2023-02-03T08:38:05.603Z,100.00
2023-02-03T08:39:07.648Z,100.00
2023-02-03T08:40:10.649Z,100.00
2023-02-03T08:41:18.335Z,100.00
2023-02-03T08:42:20.746Z,100.00
2023-02-03T08:43:22.768Z,100.00
2023-02-03T08:44:24.827Z,100.00
2023-02-03T08:45:27.032Z,100.00
2023-02-03T08:46:28.960Z,100.00
2023-02-03T08:47:30.804Z,100.00
2023-02-03T08:48:33.012Z,100.00
2023-02-03T08:49:35.915Z,100.00
2023-02-03T08:50:37.758Z,100.00
2023-02-03T08:51:40.683Z,100.00
2023-02-03T08:52:42.527Z,100.00
2023-02-03T08:53:44.361Z,100.00
2023-02-03T08:54:47.049Z,100.00
2023-02-03T08:55:48.814Z,100.00
2023-02-03T08:56:51.643Z,100.00
2023-02-03T08:57:53.522Z,100.00
2023-02-03T08:58:56.095Z,100.00
2023-02-03T08:59:58.116Z,100.00
2023-02-03T09:01:08.752Z,100.00
2023-02-03T09:02:15.870Z,100.00
2023-02-03T09:03:17.601Z,100.00
2023-02-03T09:04:24.522Z,100.00
2023-02-03T09:05:26.807Z,100.00
2023-02-03T09:06:30.161Z,100.00
2023-02-03T09:07:32.323Z,100.00
2023-02-03T09:08:36.176Z,100.00
2023-02-03T09:09:37.937Z,100.00
2023-02-03T09:10:39.929Z,100.00
2023-02-03T09:11:42.975Z,100.00
2023-02-03T09:12:44.804Z,100.00
2023-02-03T09:13:46.677Z,100.00
2023-02-03T09:14:48.667Z,100.00
2023-02-03T09:15:50.891Z,100.00
2023-02-03T09:16:53.104Z,100.00
2023-02-03T09:17:56.951Z,100.00
2023-02-03T09:18:58.945Z,100.00
2023-02-03T09:20:00.891Z,100.00
2023-02-03T09:21:07.183Z,100.00
2023-02-03T09:22:09.470Z,100.00
2023-02-03T09:23:11.507Z,100.00
2023-02-03T09:24:13.304Z,100.00
2023-02-03T09:25:16.321Z,100.00
2023-02-03T09:26:18.452Z,100.00
2023-02-03T09:27:20.149Z,100.00
2023-02-03T09:28:21.961Z,100.00
2023-02-03T09:29:24.241Z,100.00
2023-02-03T09:30:26.960Z,100.00
2023-02-03T09:31:28.955Z,100.00
2023-02-03T09:32:30.879Z,100.00
2023-02-03T09:33:33.377Z,100.00
2023-02-03T09:34:35.187Z,100.00
2023-02-03T09:35:37.018Z,100.00
2023-02-03T09:36:39.239Z,100.00
2023-02-03T09:37:41.830Z,100.00
2023-02-03T09:38:43.664Z,100.00
2023-02-03T09:39:45.662Z,100.00
2023-02-03T09:41:09.306Z,100.00
2023-02-03T09:42:31.951Z,100.00
2023-02-03T09:43:55.178Z,100.00
2023-02-03T09:45:17.934Z,100.00
2023-02-03T09:46:25.940Z,100.00
2023-02-03T09:47:33.810Z,100.00
2023-02-03T09:48:43.910Z,100.00
2023-02-03T09:49:55.693Z,100.00
2023-02-03T09:50:57.635Z,100.00
2023-02-03T09:52:09.332Z,100.00
2023-02-03T09:53:45.233Z,100.00
2023-02-03T09:55:34.169Z,100.00
2023-02-03T09:56:39.483Z,99.99
2023-02-03T09:57:55.972Z,100.00
2023-02-03T09:58:58.326Z,100.00
2023-02-03T10:00:13.939Z,99.99
2023-02-03T10:01:20.137Z,99.76
2023-02-03T10:03:04.167Z,99.14
2023-02-03T10:04:28.121Z,98.53
2023-02-03T10:05:42.006Z,98.49
2023-02-03T10:06:47.183Z,98.65
2023-02-03T10:08:28.519Z,98.79
2023-02-03T10:09:52.366Z,98.91
2023-02-03T10:11:11.736Z,98.80
2023-02-03T10:12:37.402Z,98.82
2023-02-03T10:14:13.705Z,98.44
2023-02-03T10:15:27.734Z,98.14
2023-02-03T10:17:31.533Z,98.57
2023-02-03T10:18:52.388Z,98.93
2023-02-03T10:20:02.155Z,99.00
2023-02-03T10:21:19.445Z,99.36
2023-02-03T10:22:28.382Z,99.12
2023-02-03T10:23:35.442Z,99.17
2023-02-03T10:25:00.271Z,99.70
2023-02-03T10:26:07.557Z,99.97
2023-02-03T10:27:18.442Z,100.00
2023-02-03T10:28:23.886Z,100.00
2023-02-03T10:29:35.077Z,100.00
2023-02-03T10:30:45.421Z,100.00
2023-02-03T10:31:48.044Z,100.00
2023-02-03T10:33:00.535Z,100.00
2023-02-03T10:34:12.229Z,100.00
2023-02-03T10:35:14.492Z,100.00
2023-02-03T10:36:35.349Z,100.00
2023-02-03T10:37:49.431Z,100.00
2023-02-03T10:39:31.024Z,100.00
2023-02-03T10:40:32.925Z,100.00
2023-02-03T10:41:35.028Z,100.00
2023-02-03T10:42:56.389Z,100.00
2023-02-03T10:44:00.140Z,100.00
2023-02-03T10:45:04.331Z,100.00
2023-02-03T10:46:06.303Z,100.00
2023-02-03T10:47:27.186Z,100.00
2023-02-03T10:48:29.937Z,100.00
2023-02-03T10:49:31.837Z,100.00
2023-02-03T10:50:35.989Z,100.00
2023-02-03T10:51:50.403Z,100.00
2023-02-03T10:52:52.453Z,100.00
2023-02-03T10:53:54.442Z,100.00
2023-02-03T10:54:56.556Z,100.00
2023-02-03T10:56:04.665Z,100.00
2023-02-03T10:57:16.642Z,100.00
2023-02-03T10:58:27.453Z,100.00
2023-02-03T10:59:42.154Z,100.00
2023-02-03T11:00:44.142Z,100.00
2023-02-03T11:01:49.161Z,100.00
2023-02-03T11:03:26.151Z,100.00
2023-02-03T11:04:33.595Z,100.00
2023-02-03T11:05:35.495Z,100.00
2023-02-03T11:06:56.241Z,100.00
2023-02-03T11:07:58.186Z,100.00
2023-02-03T11:09:00.776Z,100.00
2023-02-03T11:10:02.669Z,100.00
2023-02-03T11:11:31.327Z,100.00
2023-02-03T11:12:33.213Z,100.00
2023-02-03T11:13:35.420Z,100.00
2023-02-03T11:14:40.606Z,100.00
2023-02-03T11:16:17.297Z,100.00
2023-02-03T11:17:29.871Z,100.00
2023-02-03T11:18:59.907Z,100.00
2023-02-03T11:20:16.496Z,100.00
2023-02-03T11:21:22.648Z,100.00
2023-02-03T11:22:32.153Z,100.00
2023-02-03T11:23:34.510Z,100.00
2023-02-03T11:24:42.986Z,100.00
2023-02-03T11:25:44.897Z,100.00
2023-02-03T11:26:59.441Z,100.00
2023-02-03T11:28:10.743Z,100.00
2023-02-03T11:29:23.873Z,100.00
2023-02-03T11:30:31.835Z,100.00
2023-02-03T11:31:36.555Z,100.00
2023-02-03T11:32:41.940Z,100.00
2023-02-03T11:33:48.770Z,100.00
2023-02-03T11:35:04.428Z,100.00
2023-02-03T11:36:06.772Z,100.00
2023-02-03T11:37:38.641Z,100.00
2023-02-03T11:38:42.407Z,100.00
2023-02-03T11:39:44.302Z,100.00
2023-02-03T11:40:46.093Z,100.00
2023-02-03T11:41:48.955Z,100.00
2023-02-03T11:42:50.763Z,100.00
2023-02-03T11:43:55.944Z,100.00
2023-02-03T11:45:19.351Z,100.00
2023-02-03T11:46:21.775Z,100.00
2023-02-03T11:47:24.020Z,100.00
2023-02-03T11:48:35.701Z,100.00
2023-02-03T11:50:12.279Z,100.00
2023-02-03T11:51:40.254Z,100.00
2023-02-03T11:53:10.217Z,100.00
2023-02-03T11:54:39.765Z,100.00
2023-02-03T11:56:03.154Z,100.00
2023-02-03T11:57:44.939Z,100.00
2023-02-03T11:59:19.446Z,100.00
2023-02-03T12:00:41.827Z,100.00
2023-02-03T12:02:29.440Z,100.00
2023-02-03T12:04:20.197Z,100.00
2023-02-03T12:05:41.282Z,100.00
2023-02-03T12:07:05.009Z,100.00
2023-02-03T12:08:36.679Z,100.00
2023-02-03T12:10:00.063Z,100.00
2023-02-03T12:11:22.461Z,100.00
2023-02-03T12:12:28.420Z,100.00
2023-02-03T12:14:08.045Z,100.00
2023-02-03T12:16:00.208Z,100.00
2023-02-03T12:17:39.983Z,100.00
2023-02-03T12:19:11.005Z,100.00
2023-02-03T12:20:34.694Z,100.00
2023-02-03T12:21:45.705Z,100.00
2023-02-03T12:23:12.330Z,100.00
2023-02-03T12:24:50.139Z,100.00
2023-02-03T12:26:03.772Z,100.00
2023-02-03T12:27:37.960Z,100.00
2023-02-03T12:28:50.308Z,100.00
2023-02-03T12:30:02.398Z,100.00
2023-02-03T12:31:10.050Z,100.00
2023-02-03T12:32:24.648Z,100.00
2023-02-03T12:33:48.769Z,100.00
2023-02-03T12:35:13.417Z,100.00
2023-02-03T12:36:30.035Z,100.00
2023-02-03T12:37:46.781Z,100.00
2023-02-03T12:38:54.770Z,100.00
2023-02-03T12:40:04.811Z,100.00
2023-02-03T12:41:18.678Z,100.00
2023-02-03T12:42:31.079Z,100.00
2023-02-03T12:43:42.685Z,100.00
2023-02-03T12:44:57.729Z,100.00
2023-02-03T12:46:07.669Z,100.00
2023-02-03T12:47:30.557Z,100.00
2023-02-03T12:48:48.481Z,100.00
2023-02-03T12:50:05.565Z,100.00
2023-02-03T12:51:23.875Z,100.00
2023-02-03T12:52:39.545Z,100.00
2023-02-03T12:53:50.186Z,100.00
2023-02-03T12:55:08.232Z,100.00
2023-02-03T12:56:24.547Z,100.00
2023-02-03T12:58:01.929Z,100.00
2023-02-03T12:59:15.960Z,100.00
2023-02-03T13:00:37.007Z,100.00
2023-02-03T13:01:54.976Z,100.00
2023-02-03T13:03:06.278Z,100.00
2023-02-03T13:04:18.650Z,100.00
2023-02-03T13:05:36.022Z,100.00
2023-02-03T13:07:07.246Z,100.00
2023-02-03T13:08:18.158Z,100.00
2023-02-03T13:09:48.228Z,100.00
2023-02-03T13:11:15.402Z,100.00
2023-02-03T13:12:34.262Z,100.00
2023-02-03T13:13:44.468Z,100.00
2023-02-03T13:15:03.871Z,100.00
2023-02-03T13:16:11.682Z,100.00
2023-02-03T13:17:18.701Z,100.00
2023-02-03T13:18:29.616Z,100.00
2023-02-03T13:19:47.133Z,100.00
2023-02-03T13:20:48.989Z,100.00
2023-02-03T13:21:52.972Z,100.00
2023-02-03T13:22:54.772Z,100.00
2023-02-03T13:23:56.996Z,100.00
2023-02-03T13:25:09.497Z,100.00
2023-02-03T13:26:48.570Z,100.00
2023-02-03T13:28:07.915Z,100.00
2023-02-03T13:29:49.013Z,100.00
2023-02-03T13:31:07.662Z,100.00
2023-02-03T13:32:24.479Z,100.00
2023-02-03T13:33:44.639Z,100.00
2023-02-03T13:35:02.339Z,100.00
2023-02-03T13:36:33.241Z,100.00
2023-02-03T13:37:49.736Z,100.00
2023-02-03T13:38:51.773Z,100.00
2023-02-03T13:40:05.269Z,100.00
2023-02-03T13:41:28.631Z,100.00
2023-02-03T13:42:43.338Z,100.00
2023-02-03T13:43:51.504Z,100.00
2023-02-03T13:44:59.594Z,100.00
2023-02-03T13:46:03.962Z,100.00
2023-02-03T13:47:14.415Z,100.00
2023-02-03T13:48:26.881Z,100.00
2023-02-03T13:49:35.233Z,100.00
2023-02-03T13:50:39.687Z,100.00
2023-02-03T13:51:46.541Z,100.00
2023-02-03T13:53:03.532Z,100.00
2023-02-03T13:54:14.788Z,100.00
2023-02-03T13:55:38.723Z,100.00
2023-02-03T13:56:41.123Z,100.00
2023-02-03T13:57:43.224Z,100.00
2023-02-03T13:59:21.329Z,100.00
2023-02-03T14:01:00.600Z,100.00
2023-02-03T14:02:24.444Z,100.00
2023-02-03T14:03:26.373Z,100.00
2023-02-03T14:04:28.240Z,100.00
2023-02-03T14:05:52.589Z,100.00
2023-02-03T14:06:58.044Z,100.00
2023-02-03T14:08:25.982Z,100.00
2023-02-03T14:09:30.830Z,100.00
2023-02-03T14:10:32.702Z,100.00
2023-02-03T14:11:34.776Z,100.00
2023-02-03T14:12:40.237Z,100.00
2023-02-03T14:13:42.035Z,100.00
2023-02-03T14:14:53.150Z,100.00
2023-02-03T14:16:15.324Z,100.00
2023-02-03T14:17:35.555Z,100.00